Eau Claire, Wisconsin
Current Conditions -  °F | °C
As of 4:06 AM on Tuesday 21 Oct 2014 (Local Time) from KEAU Reporting Station
Moderate Fog Moderate Fog  
Wind Chill: 34°   Ceiling: Unl
Heat Index: 34°   Visibility: 0.5mi
Dew Point: 32°   Wind: 0mph
Humidity: 92%   Direction: NA
Pressure: 30.14"   Gusts: NA
Location:  44.82°N, 91.5°W
Report Text: KEAU 210906Z AUTO 00000KT 1/2SM FG CLR 01/00 A3014 RMK AO2 T00110000
Loading
Personal Weather Stations






























Interactive Weather Map
Tropical Storm Tracking
New forecast layout! Learn more

10-Day Weather Forecast

Advertisements
Track Severe Weather on mobile